Time;durP1;ratioP1;P1;durP2;ratioP2;P2;SDS_P1;SDS_P2;PMS_P1;PMS_P2;Temp;Humidity;BMP_temperature;BMP_pressure;BME280_temperature;BME280_humidity;BME280_pressure;Samples;Min_cycle;Max_cycle;Signal;HPM_P1;HPM_P2
2021/12/19 11:32:52;;;;;;;3.70;1.52;;;15.80;80.30;;;;;;2299853;62;30212;-77
2021/12/19 11:35:44;;;;;;;3.97;1.33;;;15.90;81.80;;;;;;2286411;62;30151;-93
2021/12/19 11:38:13;;;;;;;4.00;1.40;;;15.90;83.00;;;;;;2277427;62;30257;-88
2021/12/19 11:40:39;;;;;;;2.53;1.50;;;15.90;83.80;;;;;;2277075;62;30732;-86
2021/12/19 11:43:07;;;;;;;1.80;1.20;;;15.90;84.30;;;;;;2277162;62;29877;-85
2021/12/19 11:45:40;;;;;;;2.80;1.50;;;15.90;84.80;;;;;;2276867;62;30141;-91
2021/12/19 11:48:21;;;;;;;3.08;1.38;;;15.90;85.20;;;;;;2278010;62;30320;-88
2021/12/19 11:50:53;;;;;;;3.30;1.27;;;15.90;84.10;;;;;;2283932;62;30878;-86
2021/12/19 11:53:23;;;;;;;3.60;1.40;;;15.90;85.30;;;;;;2283962;62;30114;-87
2021/12/19 11:55:50;;;;;;;4.35;1.52;;;15.90;85.40;;;;;;2291313;62;29941;-90
2021/12/19 11:58:18;;;;;;;4.10;1.23;;;15.90;85.50;;;;;;2276998;62;30181;-87
2021/12/19 12:00:54;;;;;;;2.97;1.60;;;15.90;85.40;;;;;;2285164;62;30073;-92
2021/12/19 12:03:24;;;;;;;2.75;1.33;;;15.90;84.70;;;;;;2294989;62;30524;-87
2021/12/19 12:05:52;;;;;;;3.15;1.77;;;15.90;85.20;;;;;;2284029;62;30077;-88
2021/12/19 12:08:21;;;;;;;7.13;1.38;;;15.90;85.00;;;;;;2283824;62;30419;-89
2021/12/19 12:10:51;;;;;;;2.85;1.52;;;16.00;85.10;;;;;;2291153;62;30373;-85
2021/12/19 12:13:26;;;;;;;4.43;1.67;;;16.00;85.00;;;;;;2290914;62;30204;-75
2021/12/19 12:16:04;;;;;;;2.35;1.63;;;16.00;84.00;;;;;;2291278;62;30205;-75
2021/12/19 12:18:35;;;;;;;3.45;1.42;;;15.90;84.50;;;;;;2284384;62;30103;-75
2021/12/19 12:21:24;;;;;;;3.78;1.65;;;15.90;84.50;;;;;;2283455;62;30194;-76
2021/12/19 12:24:03;;;;;;;2.13;1.30;;;15.90;82.60;;;;;;2291224;62;30040;-74
2021/12/19 12:26:35;;;;;;;3.17;1.60;;;15.90;83.40;;;;;;2290938;62;30067;-75
2021/12/19 12:29:02;;;;;;;4.82;2.22;;;15.90;84.20;;;;;;2291224;62;30065;-77
2021/12/19 12:31:27;;;;;;;3.88;1.45;;;15.90;84.10;;;;;;2276586;62;30447;-74
2021/12/19 12:33:54;;;;;;;3.65;1.60;;;15.90;84.10;;;;;;2283361;62;30868;-75
2021/12/19 12:36:22;;;;;;;3.15;1.70;;;15.90;84.10;;;;;;2283656;62;29955;-74
2021/12/19 12:38:51;;;;;;;5.30;1.85;;;15.90;84.00;;;;;;2290983;62;30430;-73
2021/12/19 12:43:54;;;;;;;7.55;1.67;;;15.80;84.00;;;;;;2278398;62;30225;-75
2021/12/19 12:46:21;;;;;;;2.80;1.70;;;15.80;83.90;;;;;;2277916;62;30084;-74
2021/12/19 12:49:05;;;;;;;4.07;1.65;;;15.70;83.90;;;;;;2284205;62;30140;-75
2021/12/19 12:51:41;;;;;;;1.77;1.30;;;15.70;82.90;;;;;;2277546;62;31448;-75
2021/12/19 12:54:11;;;;;;;3.55;1.70;;;15.70;83.50;;;;;;2284333;62;30311;-74
2021/12/19 12:56:43;;;;;;;2.38;1.55;;;15.70;83.80;;;;;;2277920;62;29906;-74
2021/12/19 12:59:10;;;;;;;2.95;1.73;;;15.70;83.70;;;;;;2285368;62;30089;-73
2021/12/19 13:01:49;;;;;;;3.50;1.73;;;15.60;83.60;;;;;;2277609;62;30199;-74
2021/12/19 13:04:24;;;;;;;4.13;1.92;;;15.60;83.30;;;;;;2271926;62;30489;-74
2021/12/19 13:07:01;;;;;;;4.22;1.70;;;15.60;82.80;;;;;;2285225;62;30222;-76
2021/12/19 13:09:31;;;;;;;4.35;1.77;;;15.60;83.20;;;;;;2277648;62;30104;-72
2021/12/19 13:12:20;;;;;;;2.20;1.58;;;15.70;83.10;;;;;;2277546;62;30751;-74
2021/12/19 13:14:54;;;;;;;5.18;1.95;;;15.70;82.50;;;;;;2278941;62;30121;-73
2021/12/19 13:17:31;;;;;;;2.38;1.55;;;15.80;82.50;;;;;;2270971;62;30798;-72
2021/12/19 13:20:02;;;;;;;3.38;1.90;;;15.80;82.60;;;;;;2271406;62;30153;-73
2021/12/19 13:22:32;;;;;;;2.63;1.38;;;15.90;82.80;;;;;;2284958;62;30377;-73
2021/12/19 13:25:06;;;;;;;3.72;1.42;;;15.90;82.70;;;;;;2285389;62;30741;-73
2021/12/19 13:27:34;;;;;;;2.75;1.50;;;16.00;82.40;;;;;;2285004;62;29954;-74
2021/12/19 13:29:59;;;;;;;2.55;1.75;;;16.00;82.50;;;;;;2277689;62;29988;-73
2021/12/19 13:32:34;;;;;;;3.15;1.40;;;16.10;82.50;;;;;;2285174;62;30166;-77
2021/12/19 13:35:01;;;;;;;1.80;1.38;;;16.10;82.30;;;;;;2277663;62;30129;-73
2021/12/19 13:37:33;;;;;;;2.40;1.50;;;16.10;82.10;;;;;;2271113;62;29937;-72
2021/12/19 13:40:03;;;;;;;4.13;1.60;;;16.20;82.00;;;;;;2284808;62;30420;-73
2021/12/19 13:42:42;;;;;;;2.67;1.73;;;16.10;81.80;;;;;;2270914;62;30130;-74
2021/12/19 13:45:24;;;;;;;2.55;1.70;;;16.20;81.20;;;;;;2271094;62;30429;-75
2021/12/19 13:47:50;;;;;;;3.47;1.80;;;16.20;80.70;;;;;;2285171;62;30149;-77
2021/12/19 13:50:16;;;;;;;3.45;1.70;;;16.20;81.60;;;;;;2277575;62;30117;-76
2021/12/19 13:52:42;;;;;;;4.35;1.85;;;16.20;81.50;;;;;;2277651;62;30362;-75
2021/12/19 13:55:10;;;;;;;2.72;1.63;;;16.20;81.40;;;;;;2284584;62;30589;-75
2021/12/19 13:57:35;;;;;;;4.63;1.80;;;16.20;81.30;;;;;;2284787;62;30179;-74
2021/12/19 14:00:04;;;;;;;3.25;1.58;;;16.30;81.30;;;;;;2277666;62;30268;-75
2021/12/19 14:02:37;;;;;;;3.10;2.15;;;16.30;81.10;;;;;;2270369;62;30859;-73
2021/12/19 14:05:04;;;;;;;1.95;1.40;;;16.30;80.80;;;;;;2272038;62;30601;-74
2021/12/19 14:07:36;;;;;;;2.88;1.90;;;16.30;80.70;;;;;;2283840;62;30201;-75
2021/12/19 14:10:09;;;;;;;7.05;2.17;;;16.40;80.60;;;;;;2271954;62;30240;-76
2021/12/19 14:12:54;;;;;;;2.20;1.48;;;16.40;80.50;;;;;;2270507;62;29938;-76
2021/12/19 14:15:20;;;;;;;2.45;1.50;;;16.40;80.30;;;;;;2278613;62;30076;-77
2021/12/19 14:17:49;;;;;;;2.67;1.15;;;16.40;80.30;;;;;;2284957;62;30256;-75
2021/12/19 14:20:15;;;;;;;3.83;1.63;;;16.40;80.20;;;;;;2277371;62;30021;-76
2021/12/19 14:22:40;;;;;;;2.83;1.25;;;16.50;80.20;;;;;;2277445;62;30201;-76
2021/12/19 14:25:07;;;;;;;3.50;1.70;;;16.50;80.10;;;;;;2284910;62;30524;-75
2021/12/19 14:27:37;;;;;;;3.60;1.80;;;16.50;80.00;;;;;;2284726;62;30023;-75
2021/12/19 14:30:04;;;;;;;3.92;1.55;;;16.50;80.00;;;;;;2277500;62;30329;-78
2021/12/19 14:32:44;;;;;;;3.03;1.35;;;16.50;80.10;;;;;;2284571;62;30212;-75
2021/12/19 14:35:26;;;;;;;3.30;1.55;;;16.40;80.10;;;;;;2284844;62;30409;-75
2021/12/19 14:37:58;;;;;;;3.05;1.40;;;16.40;80.10;;;;;;2284737;62;30123;-76
2021/12/19 14:40:37;;;;;;;4.53;1.08;;;16.40;81.00;;;;;;2284526;62;30185;-75
2021/12/19 14:43:03;;;;;;;2.45;1.45;;;16.30;80.20;;;;;;2271049;62;30807;-76
2021/12/19 14:45:32;;;;;;;2.42;1.15;;;16.30;80.50;;;;;;2277311;62;30623;-75
2021/12/19 14:48:09;;;;;;;4.05;1.48;;;16.30;80.40;;;;;;2284518;62;30207;-73
2021/12/19 14:50:35;;;;;;;2.53;1.27;;;16.40;80.00;;;;;;2284786;62;30186;-76
2021/12/19 14:53:06;;;;;;;2.00;1.20;;;16.40;80.40;;;;;;2284568;62;30915;-74
2021/12/19 14:55:43;;;;;;;2.63;1.23;;;16.40;80.20;;;;;;2277157;62;30556;-74
2021/12/19 14:58:09;;;;;;;3.13;1.30;;;16.40;80.20;;;;;;2271100;62;29924;-75
2021/12/19 15:00:36;;;;;;;2.88;1.30;;;16.30;80.40;;;;;;2269306;62;30260;-75
2021/12/19 15:03:02;;;;;;;4.03;1.60;;;16.30;80.40;;;;;;2262465;62;30181;-75
2021/12/19 15:05:32;;;;;;;2.55;1.20;;;16.30;80.50;;;;;;2269050;62;30482;-76
2021/12/19 15:08:00;;;;;;;3.08;1.50;;;16.20;80.50;;;;;;2276390;62;30314;-76
2021/12/19 15:10:25;;;;;;;2.25;1.17;;;16.30;80.50;;;;;;2269124;62;30286;-75
2021/12/19 15:12:51;;;;;;;1.35;1.02;;;16.30;80.50;;;;;;2276440;62;30023;-75
2021/12/19 15:15:17;;;;;;;3.15;1.63;;;16.30;80.50;;;;;;2276172;62;30167;-75
2021/12/19 15:17:45;;;;;;;3.08;1.35;;;16.30;80.40;;;;;;2276459;62;30023;-74
2021/12/19 15:20:11;;;;;;;1.40;1.00;;;16.20;80.30;;;;;;2280925;62;29741;-75
2021/12/19 15:22:41;;;;;;;3.47;1.58;;;16.20;80.40;;;;;;2284334;62;31040;-75
2021/12/19 15:25:07;;;;;;;2.03;1.30;;;16.20;80.50;;;;;;2284682;62;30177;-74
2021/12/19 15:27:33;;;;;;;3.20;1.00;;;16.10;80.50;;;;;;2284724;62;30560;-74
2021/12/19 15:29:59;;;;;;;3.85;1.27;;;16.20;80.50;;;;;;2276082;62;30143;-76
2021/12/19 15:32:26;;;;;;;2.50;1.27;;;16.10;80.30;;;;;;2284501;62;30118;-76
2021/12/19 15:34:52;;;;;;;2.70;1.30;;;16.10;80.20;;;;;;2284642;62;30017;-76
2021/12/19 15:37:18;;;;;;;2.95;1.35;;;16.10;80.20;;;;;;2276670;62;30196;-75
2021/12/19 15:39:58;;;;;;;1.67;1.00;;;16.10;80.20;;;;;;2284760;62;30234;-76
2021/12/19 15:42:34;;;;;;;4.45;1.52;;;16.10;80.10;;;;;;2284684;62;30747;-76
